sensor_id;sensor_type;location;lat;lon;timestamp;pressure;altitude;pressure_sealevel;temperature;humidity
8069;BME280;4077;43.702;24.896;2022-11-20T00:01:11;98897.72;;;12.91;100.00
8069;BME280;4077;43.702;24.896;2022-11-20T00:03:38;98896.09;;;12.79;100.00
8069;BME280;4077;43.702;24.896;2022-11-20T00:06:08;98906.97;;;13.24;100.00
8069;BME280;4077;43.702;24.896;2022-11-20T00:08:34;98896.84;;;12.90;100.00
8069;BME280;4077;43.702;24.896;2022-11-20T00:11:07;98889.97;;;12.86;100.00
8069;BME280;4077;43.702;24.896;2022-11-20T00:13:33;98886.63;;;12.72;100.00
8069;BME280;4077;43.702;24.896;2022-11-20T00:16:00;98882.19;;;12.87;100.00
8069;BME280;4077;43.702;24.896;2022-11-20T00:18:26;98877.94;;;12.79;100.00
8069;BME280;4077;43.702;24.896;2022-11-20T00:20:52;98883.09;;;12.85;100.00
8069;BME280;4077;43.702;24.896;2022-11-20T00:23:18;98880.47;;;12.86;100.00
8069;BME280;4077;43.702;24.896;2022-11-20T00:25:43;98874.56;;;12.68;100.00
8069;BME280;4077;43.702;24.896;2022-11-20T00:28:09;98866.03;;;12.56;100.00
8069;BME280;4077;43.702;24.896;2022-11-20T00:30:34;98869.66;;;12.26;100.00
8069;BME280;4077;43.702;24.896;2022-11-20T00:33:00;98874.84;;;12.23;100.00
8069;BME280;4077;43.702;24.896;2022-11-20T00:35:25;98869.59;;;12.34;100.00
8069;BME280;4077;43.702;24.896;2022-11-20T00:37:50;98849.78;;;12.31;100.00
8069;BME280;4077;43.702;24.896;2022-11-20T00:40:16;98846.31;;;12.32;100.00
8069;BME280;4077;43.702;24.896;2022-11-20T00:42:41;98872.97;;;12.51;100.00
8069;BME280;4077;43.702;24.896;2022-11-20T00:45:07;98859.97;;;12.57;100.00
8069;BME280;4077;43.702;24.896;2022-11-20T00:47:33;98855.75;;;12.44;100.00
8069;BME280;4077;43.702;24.896;2022-11-20T00:49:58;98863.47;;;12.52;100.00
8069;BME280;4077;43.702;24.896;2022-11-20T00:52:23;98857.53;;;12.36;100.00
8069;BME280;4077;43.702;24.896;2022-11-20T00:54:49;98863.53;;;12.40;100.00
8069;BME280;4077;43.702;24.896;2022-11-20T00:57:14;98865.19;;;12.48;100.00
8069;BME280;4077;43.702;24.896;2022-11-20T00:59:40;98884.13;;;12.55;100.00
8069;BME280;4077;43.702;24.896;2022-11-20T01:02:05;98880.59;;;12.68;100.00
8069;BME280;4077;43.702;24.896;2022-11-20T01:04:30;98865.88;;;12.79;100.00
8069;BME280;4077;43.702;24.896;2022-11-20T01:06:56;98863.22;;;12.82;100.00
8069;BME280;4077;43.702;24.896;2022-11-20T01:09:21;98857.28;;;12.73;100.00
8069;BME280;4077;43.702;24.896;2022-11-20T01:11:47;98871.84;;;12.83;100.00
8069;BME280;4077;43.702;24.896;2022-11-20T01:14:16;98872.56;;;13.06;100.00
8069;BME280;4077;43.702;24.896;2022-11-20T01:16:47;98872.56;;;13.03;100.00
8069;BME280;4077;43.702;24.896;2022-11-20T01:19:21;98888.00;;;13.19;100.00
8069;BME280;4077;43.702;24.896;2022-11-20T01:21:53;98859.47;;;13.17;100.00
8069;BME280;4077;43.702;24.896;2022-11-20T01:24:20;98870.75;;;13.14;100.00
8069;BME280;4077;43.702;24.896;2022-11-20T01:26:48;98882.00;;;13.10;100.00
8069;BME280;4077;43.702;24.896;2022-11-20T01:29:18;98881.16;;;13.08;100.00
8069;BME280;4077;43.702;24.896;2022-11-20T01:31:44;98864.88;;;12.94;100.00
8069;BME280;4077;43.702;24.896;2022-11-20T01:34:12;98860.38;;;13.18;100.00
8069;BME280;4077;43.702;24.896;2022-11-20T01:36:38;98842.38;;;13.01;100.00
8069;BME280;4077;43.702;24.896;2022-11-20T01:39:07;98829.44;;;12.99;100.00
8069;BME280;4077;43.702;24.896;2022-11-20T01:41:35;98841.41;;;13.09;100.00
8069;BME280;4077;43.702;24.896;2022-11-20T01:44:21;98827.53;;;13.20;100.00
8069;BME280;4077;43.702;24.896;2022-11-20T01:49:26;98818.66;;;13.42;100.00
8069;BME280;4077;43.702;24.896;2022-11-20T01:52:03;98823.91;;;13.39;100.00
8069;BME280;4077;43.702;24.896;2022-11-20T01:54:43;98803.25;;;13.30;100.00
8069;BME280;4077;43.702;24.896;2022-11-20T01:57:12;98815.59;;;13.00;100.00
8069;BME280;4077;43.702;24.896;2022-11-20T01:59:43;98824.09;;;13.18;100.00
8069;BME280;4077;43.702;24.896;2022-11-20T02:02:10;98791.59;;;12.84;100.00
8069;BME280;4077;43.702;24.896;2022-11-20T02:04:36;98812.13;;;13.01;100.00
8069;BME280;4077;43.702;24.896;2022-11-20T02:07:03;98805.00;;;13.28;100.00
8069;BME280;4077;43.702;24.896;2022-11-20T02:09:30;98810.25;;;13.22;100.00
8069;BME280;4077;43.702;24.896;2022-11-20T02:11:56;98807.63;;;13.25;100.00
8069;BME280;4077;43.702;24.896;2022-11-20T02:14:23;98801.63;;;13.17;100.00
8069;BME280;4077;43.702;24.896;2022-11-20T02:16:49;98792.13;;;13.15;100.00
8069;BME280;4077;43.702;24.896;2022-11-20T02:19:31;98781.63;;;13.34;100.00
8069;BME280;4077;43.702;24.896;2022-11-20T02:22:11;98786.94;;;13.17;100.00
8069;BME280;4077;43.702;24.896;2022-11-20T02:24:39;98774.84;;;13.16;100.00
8069;BME280;4077;43.702;24.896;2022-11-20T02:27:10;98788.50;;;13.35;100.00
8069;BME280;4077;43.702;24.896;2022-11-20T02:29:57;98794.69;;;13.22;100.00
8069;BME280;4077;43.702;24.896;2022-11-20T02:32:32;98793.66;;;13.36;100.00
8069;BME280;4077;43.702;24.896;2022-11-20T02:34:57;98786.06;;;13.17;100.00
8069;BME280;4077;43.702;24.896;2022-11-20T02:37:27;98766.31;;;13.06;100.00
8069;BME280;4077;43.702;24.896;2022-11-20T02:39:55;98786.94;;;13.15;100.00
8069;BME280;4077;43.702;24.896;2022-11-20T02:42:21;98785.31;;;13.07;100.00
8069;BME280;4077;43.702;24.896;2022-11-20T02:44:46;98798.19;;;13.18;100.00
8069;BME280;4077;43.702;24.896;2022-11-20T02:47:12;98785.38;;;13.01;100.00
8069;BME280;4077;43.702;24.896;2022-11-20T02:49:37;98791.22;;;13.23;100.00
8069;BME280;4077;43.702;24.896;2022-11-20T02:52:03;98784.53;;;13.00;100.00
8069;BME280;4077;43.702;24.896;2022-11-20T02:54:29;98801.78;;;13.01;100.00
8069;BME280;4077;43.702;24.896;2022-11-20T02:56:54;98797.72;;;12.73;100.00
8069;BME280;4077;43.702;24.896;2022-11-20T02:59:20;98795.31;;;12.50;100.00
8069;BME280;4077;43.702;24.896;2022-11-20T03:01:45;98781.69;;;12.25;100.00
8069;BME280;4077;43.702;24.896;2022-11-20T03:04:11;98798.06;;;12.25;100.00
8069;BME280;4077;43.702;24.896;2022-11-20T03:06:36;98799.09;;;11.98;100.00
8069;BME280;4077;43.702;24.896;2022-11-20T03:09:02;98804.28;;;11.92;100.00
8069;BME280;4077;43.702;24.896;2022-11-20T03:11:28;98789.69;;;11.88;100.00
8069;BME280;4077;43.702;24.896;2022-11-20T03:13:53;98794.03;;;11.74;100.00
8069;BME280;4077;43.702;24.896;2022-11-20T03:16:21;98808.47;;;12.19;100.00
8069;BME280;4077;43.702;24.896;2022-11-20T03:18:47;98806.84;;;12.00;100.00
8069;BME280;4077;43.702;24.896;2022-11-20T03:21:14;98818.06;;;11.97;100.00
8069;BME280;4077;43.702;24.896;2022-11-20T03:23:40;98821.44;;;12.12;100.00
8069;BME280;4077;43.702;24.896;2022-11-20T03:26:21;98856.69;;;12.28;100.00
8069;BME280;4077;43.702;24.896;2022-11-20T03:28:50;98848.16;;;12.15;100.00
8069;BME280;4077;43.702;24.896;2022-11-20T03:31:19;98869.66;;;12.25;100.00
8069;BME280;4077;43.702;24.896;2022-11-20T03:33:44;98880.06;;;12.13;100.00
8069;BME280;4077;43.702;24.896;2022-11-20T03:36:14;98883.41;;;12.36;100.00
8069;BME280;4077;43.702;24.896;2022-11-20T03:38:41;98890.41;;;12.16;100.00
8069;BME280;4077;43.702;24.896;2022-11-20T03:41:09;98887.84;;;12.10;100.00
8069;BME280;4077;43.702;24.896;2022-11-20T03:43:36;98891.34;;;12.01;100.00
8069;BME280;4077;43.702;24.896;2022-11-20T03:46:01;98890.50;;;11.94;100.00
8069;BME280;4077;43.702;24.896;2022-11-20T03:48:27;98915.50;;;12.01;100.00
8069;BME280;4077;43.702;24.896;2022-11-20T03:50:54;98896.53;;;11.92;100.00
8069;BME280;4077;43.702;24.896;2022-11-20T03:53:31;98921.47;;;12.10;100.00
8069;BME280;4077;43.702;24.896;2022-11-20T03:55:56;98900.00;;;11.95;100.00
8069;BME280;4077;43.702;24.896;2022-11-20T03:58:21;98902.53;;;12.04;100.00
8069;BME280;4077;43.702;24.896;2022-11-20T04:00:47;98864.63;;;11.97;100.00
8069;BME280;4077;43.702;24.896;2022-11-20T04:03:12;98879.28;;;12.01;100.00
8069;BME280;4077;43.702;24.896;2022-11-20T04:05:38;98901.63;;;12.12;100.00
8069;BME280;4077;43.702;24.896;2022-11-20T04:08:03;98902.56;;;11.97;100.00
8069;BME280;4077;43.702;24.896;2022-11-20T04:10:29;98916.38;;;11.91;100.00
8069;BME280;4077;43.702;24.896;2022-11-20T04:12:54;98941.34;;;12.00;100.00
8069;BME280;4077;43.702;24.896;2022-11-20T04:15:20;98951.69;;;12.00;100.00
8069;BME280;4077;43.702;24.896;2022-11-20T04:17:45;98948.28;;;11.76;100.00
8069;BME280;4077;43.702;24.896;2022-11-20T04:20:11;98941.38;;;11.89;100.00
8069;BME280;4077;43.702;24.896;2022-11-20T04:22:36;98955.16;;;12.02;100.00
8069;BME280;4077;43.702;24.896;2022-11-20T04:25:02;98936.22;;;11.89;100.00
8069;BME280;4077;43.702;24.896;2022-11-20T04:27:28;98980.06;;;12.20;100.00
8069;BME280;4077;43.702;24.896;2022-11-20T04:29:55;98980.09;;;12.14;100.00
8069;BME280;4077;43.702;24.896;2022-11-20T04:32:20;98961.22;;;11.17;100.00
8069;BME280;4077;43.702;24.896;2022-11-20T04:34:46;98970.69;;;11.03;100.00
8069;BME280;4077;43.702;24.896;2022-11-20T04:37:11;98962.09;;;10.91;100.00
8069;BME280;4077;43.702;24.896;2022-11-20T04:39:37;98975.88;;;10.92;100.00
8069;BME280;4077;43.702;24.896;2022-11-20T04:42:02;99005.09;;;10.85;100.00
8069;BME280;4077;43.702;24.896;2022-11-20T04:44:46;98989.50;;;10.56;100.00
8069;BME280;4077;43.702;24.896;2022-11-20T04:47:11;98968.00;;;10.52;100.00
8069;BME280;4077;43.702;24.896;2022-11-20T04:49:37;98989.53;;;10.51;100.00
8069;BME280;4077;43.702;24.896;2022-11-20T04:52:02;98993.72;;;10.32;100.00
8069;BME280;4077;43.702;24.896;2022-11-20T04:54:28;98990.94;;;10.00;100.00
8069;BME280;4077;43.702;24.896;2022-11-20T04:56:53;98985.00;;;10.09;100.00
8069;BME280;4077;43.702;24.896;2022-11-20T04:59:19;99003.06;;;10.13;100.00
8069;BME280;4077;43.702;24.896;2022-11-20T05:01:44;98982.47;;;10.18;100.00
8069;BME280;4077;43.702;24.896;2022-11-20T05:04:09;98962.66;;;10.14;100.00
8069;BME280;4077;43.702;24.896;2022-11-20T05:06:35;98984.97;;;10.04;100.00
8069;BME280;4077;43.702;24.896;2022-11-20T05:09:01;98991.00;;;10.03;100.00
8069;BME280;4077;43.702;24.896;2022-11-20T05:11:27;98994.34;;;9.90;100.00
8069;BME280;4077;43.702;24.896;2022-11-20T05:13:54;98990.00;;;9.87;100.00
8069;BME280;4077;43.702;24.896;2022-11-20T05:16:21;98990.16;;;10.09;100.00
8069;BME280;4077;43.702;24.896;2022-11-20T05:18:48;99009.06;;;10.11;100.00
8069;BME280;4077;43.702;24.896;2022-11-20T05:21:14;99003.88;;;10.08;100.00
8069;BME280;4077;43.702;24.896;2022-11-20T05:23:40;99000.47;;;10.15;100.00
8069;BME280;4077;43.702;24.896;2022-11-20T05:26:12;98986.72;;;10.10;100.00
8069;BME280;4077;43.702;24.896;2022-11-20T05:28:37;98994.44;;;10.07;100.00
8069;BME280;4077;43.702;24.896;2022-11-20T05:31:12;98980.81;;;10.26;100.00
8069;BME280;4077;43.702;24.896;2022-11-20T05:33:40;99000.50;;;10.18;100.00
8069;BME280;4077;43.702;24.896;2022-11-20T05:36:06;98999.50;;;9.89;100.00
8069;BME280;4077;43.702;24.896;2022-11-20T05:38:32;98999.53;;;9.99;100.00
8069;BME280;4077;43.702;24.896;2022-11-20T05:41:05;98979.81;;;10.03;100.00
8069;BME280;4077;43.702;24.896;2022-11-20T05:43:35;98994.44;;;10.04;100.00
8069;BME280;4077;43.702;24.896;2022-11-20T05:46:02;99009.00;;;10.02;100.00
8069;BME280;4077;43.702;24.896;2022-11-20T05:48:28;99015.00;;;10.01;100.00
8069;BME280;4077;43.702;24.896;2022-11-20T05:50:53;99026.22;;;10.06;100.00
8069;BME280;4077;43.702;24.896;2022-11-20T05:53:19;99020.94;;;9.87;100.00
8069;BME280;4077;43.702;24.896;2022-11-20T05:55:44;99010.50;;;9.66;100.00
8069;BME280;4077;43.702;24.896;2022-11-20T05:58:09;99024.22;;;9.65;100.00
8069;BME280;4077;43.702;24.896;2022-11-20T06:00:35;99048.41;;;9.81;100.00
8069;BME280;4077;43.702;24.896;2022-11-20T06:03:01;99060.50;;;9.90;100.00
8069;BME280;4077;43.702;24.896;2022-11-20T06:05:26;99051.81;;;9.77;100.00
8069;BME280;4077;43.702;24.896;2022-11-20T06:07:52;99069.97;;;9.91;100.00
8069;BME280;4077;43.702;24.896;2022-11-20T06:10:17;99057.94;;;9.93;100.00
8069;BME280;4077;43.702;24.896;2022-11-20T06:12:43;99076.13;;;10.14;100.00
8069;BME280;4077;43.702;24.896;2022-11-20T06:15:08;99081.19;;;9.96;100.00
8069;BME280;4077;43.702;24.896;2022-11-20T06:17:34;99081.88;;;9.75;100.00
8069;BME280;4077;43.702;24.896;2022-11-20T06:20:00;99086.06;;;9.65;100.00
8069;BME280;4077;43.702;24.896;2022-11-20T06:22:25;99054.25;;;9.60;100.00
8069;BME280;4077;43.702;24.896;2022-11-20T06:24:50;99046.66;;;9.75;100.00
8069;BME280;4077;43.702;24.896;2022-11-20T06:27:16;99034.38;;;9.47;100.00
8069;BME280;4077;43.702;24.896;2022-11-20T06:29:41;99017.16;;;9.40;100.00
8069;BME280;4077;43.702;24.896;2022-11-20T06:32:07;99036.31;;;9.72;100.00
8069;BME280;4077;43.702;24.896;2022-11-20T06:34:32;99050.91;;;9.69;100.00
8069;BME280;4077;43.702;24.896;2022-11-20T06:36:58;99055.22;;;9.74;100.00
8069;BME280;4077;43.702;24.896;2022-11-20T06:39:23;99030.97;;;9.48;100.00
8069;BME280;4077;43.702;24.896;2022-11-20T06:41:49;99055.16;;;9.67;100.00
8069;BME280;4077;43.702;24.896;2022-11-20T06:44:14;99055.03;;;9.50;100.00
8069;BME280;4077;43.702;24.896;2022-11-20T06:46:39;99056.03;;;9.67;100.00
8069;BME280;4077;43.702;24.896;2022-11-20T06:49:05;99050.97;;;9.75;100.00
8069;BME280;4077;43.702;24.896;2022-11-20T06:51:31;99046.63;;;9.69;100.00
8069;BME280;4077;43.702;24.896;2022-11-20T06:53:56;99055.16;;;9.62;100.00
8069;BME280;4077;43.702;24.896;2022-11-20T06:56:21;99067.19;;;9.65;100.00
8069;BME280;4077;43.702;24.896;2022-11-20T06:58:47;99070.66;;;9.71;100.00
8069;BME280;4077;43.702;24.896;2022-11-20T07:01:14;99055.25;;;9.79;100.00
8069;BME280;4077;43.702;24.896;2022-11-20T07:03:40;99053.63;;;9.89;100.00
8069;BME280;4077;43.702;24.896;2022-11-20T07:06:06;99057.94;;;9.94;100.00
8069;BME280;4077;43.702;24.896;2022-11-20T07:08:32;99062.28;;;9.98;100.00
8069;BME280;4077;43.702;24.896;2022-11-20T07:10:59;99069.19;;;10.05;100.00
8069;BME280;4077;43.702;24.896;2022-11-20T07:13:26;99065.50;;;9.71;100.00
8069;BME280;4077;43.702;24.896;2022-11-20T07:15:51;99088.72;;;9.73;100.00
8069;BME280;4077;43.702;24.896;2022-11-20T07:18:17;99094.72;;;9.73;100.00
8069;BME280;4077;43.702;24.896;2022-11-20T07:20:42;99080.97;;;9.71;100.00
8069;BME280;4077;43.702;24.896;2022-11-20T07:23:08;99105.69;;;9.51;100.00
8069;BME280;4077;43.702;24.896;2022-11-20T07:25:33;99115.88;;;9.39;100.00
8069;BME280;4077;43.702;24.896;2022-11-20T07:27:59;99115.09;;;9.44;100.00
8069;BME280;4077;43.702;24.896;2022-11-20T07:30:26;99095.13;;;9.20;100.00
8069;BME280;4077;43.702;24.896;2022-11-20T07:32:53;99101.03;;;9.13;100.00
8069;BME280;4077;43.702;24.896;2022-11-20T07:35:19;99099.34;;;9.18;100.00
8069;BME280;4077;43.702;24.896;2022-11-20T07:37:45;99115.09;;;9.46;100.00
8069;BME280;4077;43.702;24.896;2022-11-20T07:40:12;99115.94;;;9.42;100.00
8069;BME280;4077;43.702;24.896;2022-11-20T07:42:38;99115.06;;;9.43;100.00
8069;BME280;4077;43.702;24.896;2022-11-20T07:45:03;99104.91;;;9.55;100.00
8069;BME280;4077;43.702;24.896;2022-11-20T07:47:36;99112.94;;;9.93;100.00
8069;BME280;4077;43.702;24.896;2022-11-20T07:50:01;99119.81;;;9.93;100.00
8069;BME280;4077;43.702;24.896;2022-11-20T07:52:27;99112.94;;;9.90;100.00
8069;BME280;4077;43.702;24.896;2022-11-20T07:54:52;99129.66;;;10.43;100.00
8069;BME280;4077;43.702;24.896;2022-11-20T07:57:17;99124.22;;;10.03;100.00
8069;BME280;4077;43.702;24.896;2022-11-20T07:59:43;99118.91;;;9.86;100.00
8069;BME280;4077;43.702;24.896;2022-11-20T08:02:10;99145.16;;;10.46;100.00
8069;BME280;4077;43.702;24.896;2022-11-20T08:04:36;99119.06;;;10.06;100.00
8069;BME280;4077;43.702;24.896;2022-11-20T08:07:01;99131.44;;;10.53;100.00
8069;BME280;4077;43.702;24.896;2022-11-20T08:09:27;99124.56;;;10.53;100.00
8069;BME280;4077;43.702;24.896;2022-11-20T08:11:54;99117.63;;;10.45;100.00
8069;BME280;4077;43.702;24.896;2022-11-20T08:14:38;99119.47;;;10.70;100.00
8069;BME280;4077;43.702;24.896;2022-11-20T08:17:03;99108.38;;;10.85;100.00
8069;BME280;4077;43.702;24.896;2022-11-20T08:19:29;99121.25;;;10.83;100.00
8069;BME280;4077;43.702;24.896;2022-11-20T08:21:55;99119.56;;;10.90;100.00
8069;BME280;4077;43.702;24.896;2022-11-20T08:24:20;99120.44;;;10.87;100.00
8069;BME280;4077;43.702;24.896;2022-11-20T08:26:46;99117.94;;;11.06;100.00
8069;BME280;4077;43.702;24.896;2022-11-20T08:29:11;99099.72;;;10.75;100.00
8069;BME280;4077;43.702;24.896;2022-11-20T08:31:37;99100.66;;;10.95;100.00
8069;BME280;4077;43.702;24.896;2022-11-20T08:34:03;99105.00;;;11.03;100.00
8069;BME280;4077;43.702;24.896;2022-11-20T08:36:28;99112.78;;;11.15;100.00
8069;BME280;4077;43.702;24.896;2022-11-20T08:38:57;99097.28;;;11.15;100.00
8069;BME280;4077;43.702;24.896;2022-11-20T08:41:22;99123.13;;;11.24;100.00
8069;BME280;4077;43.702;24.896;2022-11-20T08:43:55;99119.72;;;11.28;100.00
8069;BME280;4077;43.702;24.896;2022-11-20T08:46:22;99114.56;;;11.34;100.00
8069;BME280;4077;43.702;24.896;2022-11-20T08:48:48;99109.38;;;11.19;100.00
8069;BME280;4077;43.702;24.896;2022-11-20T08:51:14;99091.31;;;11.33;100.00
8069;BME280;4077;43.702;24.896;2022-11-20T08:53:39;99109.41;;;11.34;100.00
8069;BME280;4077;43.702;24.896;2022-11-20T08:56:05;99118.03;;;11.39;100.00
8069;BME280;4077;43.702;24.896;2022-11-20T08:58:31;99107.69;;;11.44;100.00
8069;BME280;4077;43.702;24.896;2022-11-20T09:00:56;99114.56;;;11.52;100.00
8069;BME280;4077;43.702;24.896;2022-11-20T09:03:22;99111.09;;;11.29;100.00
8069;BME280;4077;43.702;24.896;2022-11-20T09:05:47;99118.00;;;11.42;100.00
8069;BME280;4077;43.702;24.896;2022-11-20T09:08:13;99112.84;;;11.51;100.00
8069;BME280;4077;43.702;24.896;2022-11-20T09:10:38;99125.78;;;11.56;100.00
8069;BME280;4077;43.702;24.896;2022-11-20T09:13:07;99111.16;;;11.57;100.00
8069;BME280;4077;43.702;24.896;2022-11-20T09:15:32;99105.97;;;11.64;100.00
8069;BME280;4077;43.702;24.896;2022-11-20T09:18:01;99097.34;;;11.73;100.00
8069;BME280;4077;43.702;24.896;2022-11-20T09:20:28;99087.03;;;11.67;100.00
8069;BME280;4077;43.702;24.896;2022-11-20T09:22:55;99090.47;;;11.70;100.00
8069;BME280;4077;43.702;24.896;2022-11-20T09:25:20;99086.19;;;11.68;100.00
8069;BME280;4077;43.702;24.896;2022-11-20T09:27:46;99070.66;;;11.68;100.00
8069;BME280;4077;43.702;24.896;2022-11-20T09:30:15;99050.81;;;11.79;100.00
8069;BME280;4077;43.702;24.896;2022-11-20T09:32:41;99046.53;;;11.69;100.00
8069;BME280;4077;43.702;24.896;2022-11-20T09:35:08;99078.44;;;11.74;100.00
8069;BME280;4077;43.702;24.896;2022-11-20T09:37:34;99043.91;;;11.29;100.00
8069;BME280;4077;43.702;24.896;2022-11-20T09:39:59;99050.81;;;11.45;100.00
8069;BME280;4077;43.702;24.896;2022-11-20T09:42:41;99048.25;;;11.68;100.00
8069;BME280;4077;43.702;24.896;2022-11-20T09:45:30;99056.03;;;11.88;100.00
8069;BME280;4077;43.702;24.896;2022-11-20T09:48:05;99041.38;;;11.83;100.00
8069;BME280;4077;43.702;24.896;2022-11-20T09:50:45;99049.16;;;11.89;100.00
8069;BME280;4077;43.702;24.896;2022-11-20T09:53:44;99030.16;;;11.91;100.00
8069;BME280;4077;43.702;24.896;2022-11-20T09:56:12;99042.22;;;11.86;100.00
8069;BME280;4077;43.702;24.896;2022-11-20T09:58:57;99023.25;;;11.93;100.00
8069;BME280;4077;43.702;24.896;2022-11-20T10:01:30;99025.81;;;12.10;100.00
8069;BME280;4077;43.702;24.896;2022-11-20T10:06:34;99026.66;;;12.20;100.00
8069;BME280;4077;43.702;24.896;2022-11-20T10:25:38;99073.28;;;12.01;100.00
8069;BME280;4077;43.702;24.896;2022-11-20T10:31:02;99070.69;;;11.85;100.00
8069;BME280;4077;43.702;24.896;2022-11-20T10:33:41;99079.28;;;11.87;100.00
8069;BME280;4077;43.702;24.896;2022-11-20T10:36:20;99081.91;;;11.88;100.00
8069;BME280;4077;43.702;24.896;2022-11-20T10:38:54;99068.97;;;11.84;100.00
8069;BME280;4077;43.702;24.896;2022-11-20T10:41:28;99064.66;;;11.81;100.00
8069;BME280;4077;43.702;24.896;2022-11-20T10:44:17;99078.47;;;11.88;100.00
8069;BME280;4077;43.702;24.896;2022-11-20T10:47:13;99078.41;;;11.80;100.00
8069;BME280;4077;43.702;24.896;2022-11-20T10:49:40;99091.34;;;11.69;100.00
8069;BME280;4077;43.702;24.896;2022-11-20T10:52:25;99097.38;;;11.76;100.00
8069;BME280;4077;43.702;24.896;2022-11-20T11:00:22;99132.63;;;11.39;100.00
8069;BME280;4077;43.702;24.896;2022-11-20T11:02:50;99134.34;;;11.28;100.00
8069;BME280;4077;43.702;24.896;2022-11-20T11:08:19;99115.34;;;11.06;100.00
8069;BME280;4077;43.702;24.896;2022-11-20T11:10:53;99094.72;;;11.19;100.00
8069;BME280;4077;43.702;24.896;2022-11-20T11:13:25;99095.63;;;11.47;100.00
8069;BME280;4077;43.702;24.896;2022-11-20T11:15:51;99105.88;;;11.17;100.00
8069;BME280;4077;43.702;24.896;2022-11-20T11:18:24;99077.53;;;11.35;100.00
8069;BME280;4077;43.702;24.896;2022-11-20T11:20:52;99085.19;;;11.05;100.00
8069;BME280;4077;43.702;24.896;2022-11-20T11:23:45;99047.38;;;11.19;100.00
8069;BME280;4077;43.702;24.896;2022-11-20T11:26:22;99071.50;;;11.42;100.00
8069;BME280;4077;43.702;24.896;2022-11-20T11:28:58;99048.25;;;11.47;100.00
8069;BME280;4077;43.702;24.896;2022-11-20T11:31:34;99043.94;;;11.49;100.00
8069;BME280;4077;43.702;24.896;2022-11-20T11:34:11;99049.94;;;11.37;100.00
8069;BME280;4077;43.702;24.896;2022-11-20T11:36:38;99051.66;;;11.29;100.00
8069;BME280;4077;43.702;24.896;2022-11-20T11:39:05;99047.38;;;11.43;100.00
8069;BME280;4077;43.702;24.896;2022-11-20T11:41:32;99046.53;;;11.41;100.00
8069;BME280;4077;43.702;24.896;2022-11-20T11:44:19;99030.16;;;11.51;100.00
8069;BME280;4077;43.702;24.896;2022-11-20T11:47:06;99027.56;;;11.76;100.00
8069;BME280;4077;43.702;24.896;2022-11-20T11:49:35;99030.16;;;11.27;100.00
8069;BME280;4077;43.702;24.896;2022-11-20T11:52:16;99016.34;;;11.52;100.00
8069;BME280;4077;43.702;24.896;2022-11-20T11:54:47;99010.31;;;11.66;100.00
8069;BME280;4077;43.702;24.896;2022-11-20T11:57:33;99008.63;;;11.85;100.00
8069;BME280;4077;43.702;24.896;2022-11-20T12:00:10;99005.19;;;11.61;100.00
8069;BME280;4077;43.702;24.896;2022-11-20T12:08:23;98962.97;;;11.15;100.00
8069;BME280;4077;43.702;24.896;2022-11-20T12:13:54;98975.88;;;11.10;100.00
8069;BME280;4077;43.702;24.896;2022-11-20T12:16:21;98986.16;;;10.78;100.00
8069;BME280;4077;43.702;24.896;2022-11-20T12:18:51;98982.75;;;10.94;100.00
8069;BME280;4077;43.702;24.896;2022-11-20T12:21:25;98963.78;;;10.97;100.00
8069;BME280;4077;43.702;24.896;2022-11-20T12:32:40;99000.84;;;11.16;100.00
8069;BME280;4077;43.702;24.896;2022-11-20T12:35:44;98998.28;;;11.27;100.00
8069;BME280;4077;43.702;24.896;2022-11-20T12:47:27;98984.47;;;11.17;100.00
8069;BME280;4077;43.702;24.896;2022-11-20T12:50:19;98988.81;;;11.21;100.00
8069;BME280;4077;43.702;24.896;2022-11-20T12:53:11;98999.13;;;11.15;100.00
8069;BME280;4077;43.702;24.896;2022-11-20T12:58:27;99016.31;;;11.01;100.00
8069;BME280;4077;43.702;24.896;2022-11-20T13:04:27;99002.56;;;11.14;100.00
8069;BME280;4077;43.702;24.896;2022-11-20T13:06:57;99007.69;;;10.95;100.00
8069;BME280;4077;43.702;24.896;2022-11-20T13:09:24;99005.13;;;10.92;100.00
8069;BME280;4077;43.702;24.896;2022-11-20T13:12:17;99012.88;;;10.95;100.00
8069;BME280;4077;43.702;24.896;2022-11-20T13:14:52;99017.16;;;10.92;100.00
8069;BME280;4077;43.702;24.896;2022-11-20T13:17:40;99038.72;;;11.11;100.00
8069;BME280;4077;43.702;24.896;2022-11-20T13:20:15;99035.22;;;10.90;100.00
8069;BME280;4077;43.702;24.896;2022-11-20T13:22:45;99042.09;;;10.90;100.00
8069;BME280;4077;43.702;24.896;2022-11-20T13:25:35;99064.47;;;10.82;100.00
8069;BME280;4077;43.702;24.896;2022-11-20T13:30:53;99043.81;;;10.89;100.00
8069;BME280;4077;43.702;24.896;2022-11-20T13:33:36;99038.72;;;11.09;100.00
8069;BME280;4077;43.702;24.896;2022-11-20T13:36:05;99049.03;;;11.02;100.00
8069;BME280;4077;43.702;24.896;2022-11-20T13:38:44;99067.09;;;10.97;100.00
8069;BME280;4077;43.702;24.896;2022-11-20T13:41:11;99068.75;;;10.77;100.00
8069;BME280;4077;43.702;24.896;2022-11-20T13:46:48;99060.09;;;10.58;100.00
8069;BME280;4077;43.702;24.896;2022-11-20T13:49:29;99061.09;;;11.06;100.00
8069;BME280;4077;43.702;24.896;2022-11-20T13:54:59;99055.97;;;11.13;100.00
8069;BME280;4077;43.702;24.896;2022-11-20T14:00:18;99075.75;;;11.23;100.00
8069;BME280;4077;43.702;24.896;2022-11-20T14:05:22;99088.72;;;11.28;100.00
8069;BME280;4077;43.702;24.896;2022-11-20T14:07:50;99123.13;;;11.21;100.00
8069;BME280;4077;43.702;24.896;2022-11-20T14:10:25;99111.06;;;11.18;100.00
8069;BME280;4077;43.702;24.896;2022-11-20T14:12:51;99092.94;;;11.03;100.00
8069;BME280;4077;43.702;24.896;2022-11-20T14:15:31;99061.13;;;11.12;100.00
8069;BME280;4077;43.702;24.896;2022-11-20T14:17:58;99105.00;;;11.10;100.00
8069;BME280;4077;43.702;24.896;2022-11-20T14:20:29;99117.84;;;10.90;100.00
8069;BME280;4077;43.702;24.896;2022-11-20T14:22:56;99101.47;;;10.79;100.00
8069;BME280;4077;43.702;24.896;2022-11-20T14:25:25;99107.59;;;11.09;100.00
8069;BME280;4077;43.702;24.896;2022-11-20T14:28:00;99102.47;;;11.12;100.00
8069;BME280;4077;43.702;24.896;2022-11-20T14:30:47;99076.63;;;11.12;100.00
8069;BME280;4077;43.702;24.896;2022-11-20T14:33:14;99054.19;;;10.95;100.00